Time;durP1;ratioP1;P1;durP2;ratioP2;P2;SDS_P1;SDS_P2;PMS_P1;PMS_P2;Temp;Humidity;BMP_temperature;BMP_pressure;BME280_temperature;BME280_humidity;BME280_pressure;Samples;Min_cycle;Max_cycle;Signal;HPM_P1;HPM_P2
2021/07/22 00:01:47;;;;;;;2.23;1.53;;;18.20;99.90;;;;;;4952221;29;20468;-74
2021/07/22 00:07:34;;;;;;;2.30;2.20;;;18.20;99.90;;;;;;4952150;29;20250;-76
2021/07/22 00:10:00;;;;;;;1.73;1.23;;;18.10;99.90;;;;;;4952321;29;20414;-75
2021/07/22 00:12:26;;;;;;;1.20;0.90;;;18.10;99.90;;;;;;4951973;29;20210;-77
2021/07/22 00:14:51;;;;;;;2.13;1.93;;;18.10;99.90;;;;;;4951782;29;20632;-75
2021/07/22 00:17:17;;;;;;;5.07;1.90;;;18.10;99.90;;;;;;4955926;28;20178;-74
2021/07/22 00:19:42;;;;;;;8.23;1.80;;;18.10;99.90;;;;;;4950642;28;20186;-75
2021/07/22 00:22:08;;;;;;;2.40;2.13;;;18.10;99.90;;;;;;4951944;29;20198;-74
2021/07/22 00:24:35;;;;;;;10.60;2.83;;;18.10;99.90;;;;;;4951429;29;20593;-74
2021/07/22 00:27:00;;;;;;;1.60;1.50;;;18.10;99.90;;;;;;4951830;29;20769;-76
2021/07/22 00:29:30;;;;;;;1.20;1.10;;;18.00;99.90;;;;;;4950613;28;20508;-76
2021/07/22 00:31:55;;;;;;;1.47;1.37;;;17.90;99.90;;;;;;4951916;28;20253;-77
2021/07/22 00:34:21;;;;;;;1.90;1.70;;;17.90;99.90;;;;;;4951461;29;20498;-76
2021/07/22 00:36:46;;;;;;;1.50;1.10;;;17.90;99.90;;;;;;4950943;28;20265;-77
2021/07/22 00:39:14;;;;;;;2.10;1.90;;;17.90;99.90;;;;;;4952375;29;20177;-77
2021/07/22 00:41:39;;;;;;;1.60;0.93;;;17.90;99.90;;;;;;4951534;28;20170;-77
2021/07/22 00:44:05;;;;;;;3.40;1.83;;;17.90;99.90;;;;;;4941146;28;21022;-76
2021/07/22 00:46:31;;;;;;;0.90;0.70;;;17.80;99.90;;;;;;4949485;28;20555;-75
2021/07/22 00:48:56;;;;;;;1.63;1.53;;;17.80;99.90;;;;;;4950906;29;20429;-75
2021/07/22 00:51:22;;;;;;;1.63;1.20;;;17.80;99.90;;;;;;4952483;29;20167;-77
2021/07/22 00:53:48;;;;;;;2.43;2.20;;;17.80;99.90;;;;;;4949457;28;20203;-77
2021/07/22 00:56:13;;;;;;;1.17;0.97;;;17.70;99.90;;;;;;4951826;28;20178;-75
2021/07/22 00:58:39;;;;;;;2.73;1.53;;;17.70;99.90;;;;;;4948861;28;20170;-75
2021/07/22 01:01:04;;;;;;;1.67;1.57;;;17.60;99.90;;;;;;4951975;28;20206;-77
2021/07/22 01:03:30;;;;;;;1.97;1.87;;;17.60;99.90;;;;;;4950713;28;20241;-76
2021/07/22 01:05:55;;;;;;;4.03;1.67;;;17.60;99.90;;;;;;4950162;28;20178;-77
2021/07/22 01:08:21;;;;;;;1.73;0.97;;;17.50;99.90;;;;;;4952010;28;20208;-75
2021/07/22 01:10:46;;;;;;;5.23;2.23;;;17.50;99.90;;;;;;4949165;28;20182;-75
2021/07/22 01:13:12;;;;;;;8.10;1.70;;;17.40;99.90;;;;;;4949027;28;20209;-76
2021/07/22 01:15:37;;;;;;;1.70;0.77;;;17.40;99.90;;;;;;4944843;28;20606;-74
2021/07/22 01:18:03;;;;;;;1.10;0.90;;;17.40;99.90;;;;;;4947448;28;20262;-75
2021/07/22 01:20:28;;;;;;;3.20;1.93;;;17.30;99.90;;;;;;4950252;28;20593;-75
2021/07/22 01:22:56;;;;;;;1.63;1.53;;;17.30;99.90;;;;;;4950500;28;20673;-76
2021/07/22 01:25:23;;;;;;;0.97;0.87;;;17.30;99.90;;;;;;4949729;28;20659;-75
2021/07/22 01:27:49;;;;;;;2.87;2.67;;;17.20;99.90;;;;;;4950657;28;20469;-75
2021/07/22 01:30:16;;;;;;;2.17;1.87;;;17.20;99.90;;;;;;4949740;28;20496;-75
2021/07/22 01:32:42;;;;;;;1.80;1.70;;;17.20;99.90;;;;;;4949089;28;20986;-77
2021/07/22 01:35:10;;;;;;;4.87;2.03;;;17.20;99.90;;;;;;4952419;28;20438;-77
2021/07/22 01:37:38;;;;;;;1.50;1.40;;;17.20;99.90;;;;;;4951698;28;20464;-75
2021/07/22 01:40:04;;;;;;;1.33;1.20;;;17.20;99.90;;;;;;4948285;28;20430;-76
2021/07/22 01:42:31;;;;;;;0.80;0.60;;;17.10;99.90;;;;;;4948847;28;20511;-75
2021/07/22 01:44:56;;;;;;;3.43;2.00;;;17.10;99.90;;;;;;4948635;28;20460;-75
2021/07/22 01:47:22;;;;;;;1.77;1.17;;;17.10;99.90;;;;;;4950521;28;20430;-77
2021/07/22 01:49:47;;;;;;;1.20;1.10;;;17.10;99.90;;;;;;4942201;28;20197;-77
2021/07/22 01:52:13;;;;;;;2.67;2.47;;;17.10;99.90;;;;;;4949272;28;20293;-76
2021/07/22 01:54:38;;;;;;;1.77;1.63;;;17.10;99.90;;;;;;4946377;28;20633;-77
2021/07/22 01:57:04;;;;;;;2.20;1.00;;;17.00;99.90;;;;;;4935768;28;20810;-77
2021/07/22 01:59:36;;;;;;;3.37;2.03;;;17.00;99.90;;;;;;4950591;28;21801;-75
2021/07/22 02:02:06;;;;;;;0.80;0.60;;;17.00;99.90;;;;;;4943413;28;20183;-75
2021/07/22 02:04:33;;;;;;;2.37;1.20;;;16.90;99.90;;;;;;4931672;29;20509;-77
2021/07/22 02:06:59;;;;;;;1.50;1.40;;;16.90;99.90;;;;;;4938464;28;20454;-77
2021/07/22 02:09:25;;;;;;;1.80;1.40;;;16.90;99.90;;;;;;4947847;28;20433;-77
2021/07/22 02:11:51;;;;;;;1.20;0.90;;;16.80;99.90;;;;;;4971549;28;20430;-77
2021/07/22 02:14:17;;;;;;;2.80;2.60;;;16.80;99.90;;;;;;4958416;28;20438;-77
2021/07/22 02:16:43;;;;;;;2.00;1.47;;;16.80;99.90;;;;;;4958776;28;20900;-78
2021/07/22 02:19:08;;;;;;;3.97;1.50;;;16.80;99.90;;;;;;4952034;28;20174;-77
2021/07/22 02:21:36;;;;;;;10.90;2.23;;;16.70;99.90;;;;;;4963567;28;20261;-77
2021/07/22 02:24:03;;;;;;;1.10;1.00;;;16.70;99.90;;;;;;4961020;28;20570;-77
2021/07/22 02:26:29;;;;;;;1.00;0.90;;;16.70;99.90;;;;;;4957684;28;20461;-77
2021/07/22 02:28:54;;;;;;;1.10;1.00;;;16.70;99.90;;;;;;4955677;28;20422;-77
2021/07/22 02:31:20;;;;;;;1.13;1.03;;;16.60;99.90;;;;;;4953938;29;20231;-75
2021/07/22 02:33:45;;;;;;;1.43;1.33;;;16.60;99.90;;;;;;4955897;28;20280;-74
2021/07/22 02:36:11;;;;;;;1.97;1.87;;;16.60;99.90;;;;;;4962312;28;20181;-75
2021/07/22 02:38:37;;;;;;;0.93;0.83;;;16.60;99.90;;;;;;4953238;28;20177;-75
2021/07/22 02:41:06;;;;;;;3.20;3.00;;;16.50;99.90;;;;;;4953300;29;20190;-75
2021/07/22 02:43:32;;;;;;;1.40;0.90;;;16.50;99.90;;;;;;4955559;28;20198;-75
2021/07/22 02:45:58;;;;;;;1.50;1.40;;;16.50;99.90;;;;;;4952883;28;20418;-75
2021/07/22 02:48:24;;;;;;;1.43;1.23;;;16.40;99.90;;;;;;4952680;28;20848;-73
2021/07/22 02:50:49;;;;;;;1.80;1.70;;;16.40;99.90;;;;;;4953187;29;20457;-75
2021/07/22 02:53:15;;;;;;;0.70;0.50;;;16.50;99.90;;;;;;4952301;28;20595;-73
2021/07/22 02:55:40;;;;;;;7.50;1.47;;;16.40;99.90;;;;;;4971539;28;20197;-74
2021/07/22 02:58:06;;;;;;;2.13;2.03;;;16.40;99.90;;;;;;4972522;28;20205;-73
2021/07/22 03:00:32;;;;;;;1.63;1.30;;;16.40;99.90;;;;;;4960509;28;20697;-73
2021/07/22 03:03:02;;;;;;;1.53;1.07;;;16.40;99.90;;;;;;4952431;28;20499;-74
2021/07/22 03:05:30;;;;;;;3.83;2.10;;;16.40;99.90;;;;;;4957623;28;20182;-75
2021/07/22 03:07:59;;;;;;;4.97;1.63;;;16.30;99.90;;;;;;4955160;28;20941;-77
2021/07/22 03:10:25;;;;;;;1.10;0.70;;;16.30;99.90;;;;;;4957056;28;20472;-77
2021/07/22 03:12:52;;;;;;;1.30;1.20;;;16.30;99.90;;;;;;4955650;28;20466;-78
2021/07/22 03:15:18;;;;;;;5.00;2.53;;;16.20;99.90;;;;;;4954502;28;20418;-77
2021/07/22 03:17:43;;;;;;;1.23;0.80;;;16.20;99.90;;;;;;4954055;29;20410;-75
2021/07/22 03:20:09;;;;;;;3.07;2.23;;;16.20;99.90;;;;;;4952895;28;20224;-74
2021/07/22 03:22:35;;;;;;;1.50;1.10;;;16.20;99.90;;;;;;4950433;28;20206;-74
2021/07/22 03:25:00;;;;;;;0.80;0.67;;;16.20;99.90;;;;;;4952423;29;20440;-74
2021/07/22 03:27:26;;;;;;;0.80;0.60;;;16.20;99.90;;;;;;4952728;28;20553;-75
2021/07/22 03:29:51;;;;;;;2.60;2.40;;;16.20;99.90;;;;;;4952438;28;20177;-75
2021/07/22 03:32:17;;;;;;;1.33;1.23;;;16.20;99.90;;;;;;4952656;28;20206;-75
2021/07/22 03:34:42;;;;;;;1.30;0.93;;;16.20;99.90;;;;;;4953599;29;20227;-75
2021/07/22 03:37:08;;;;;;;1.10;1.00;;;16.20;99.90;;;;;;4952669;28;20182;-77
2021/07/22 03:39:33;;;;;;;0.77;0.70;;;16.20;99.90;;;;;;4953716;28;20705;-75
2021/07/22 03:41:59;;;;;;;2.17;1.10;;;16.20;99.90;;;;;;4955316;28;20162;-77
2021/07/22 03:44:24;;;;;;;1.63;1.53;;;16.20;99.90;;;;;;4953125;28;20178;-75
2021/07/22 03:46:50;;;;;;;3.03;0.90;;;16.20;99.90;;;;;;4954029;29;20182;-77
2021/07/22 03:49:16;;;;;;;1.13;1.03;;;16.10;99.90;;;;;;4955232;28;20568;-77
2021/07/22 03:51:41;;;;;;;1.93;1.23;;;16.10;99.90;;;;;;4952217;28;20859;-75
2021/07/22 03:54:07;;;;;;;1.10;1.00;;;16.20;99.90;;;;;;4952259;28;20591;-75
2021/07/22 03:56:33;;;;;;;1.47;1.37;;;16.20;99.90;;;;;;4952000;29;20517;-76
2021/07/22 03:58:59;;;;;;;1.40;1.20;;;16.20;99.90;;;;;;4955237;28;20182;-76
2021/07/22 04:01:24;;;;;;;1.73;1.30;;;16.20;99.90;;;;;;4982515;28;20463;-77
2021/07/22 04:03:50;;;;;;;1.63;1.47;;;16.20;99.90;;;;;;5054685;28;20199;-76
2021/07/22 04:06:16;;;;;;;1.13;1.03;;;16.20;99.90;;;;;;5054539;28;20301;-75
2021/07/22 04:08:41;;;;;;;1.90;1.27;;;16.10;99.90;;;;;;5054772;28;20170;-75
2021/07/22 04:11:07;;;;;;;2.90;0.93;;;16.10;99.90;;;;;;5036021;28;20179;-75
2021/07/22 04:13:33;;;;;;;4.30;1.53;;;16.10;99.90;;;;;;4969552;28;20194;-75
2021/07/22 04:16:04;;;;;;;0.90;0.70;;;16.00;99.90;;;;;;4951843;29;20170;-75
2021/07/22 04:18:30;;;;;;;1.47;1.37;;;16.00;99.90;;;;;;4952106;28;20446;-75
2021/07/22 04:20:56;;;;;;;3.20;1.90;;;16.00;99.90;;;;;;4951991;29;20456;-75
2021/07/22 04:23:21;;;;;;;2.90;2.70;;;16.00;99.90;;;;;;4951899;29;20194;-78
2021/07/22 04:25:47;;;;;;;1.63;0.70;;;16.00;99.90;;;;;;4952494;28;20178;-76
2021/07/22 04:28:13;;;;;;;1.37;1.27;;;16.10;99.90;;;;;;4994717;28;20257;-78
2021/07/22 04:30:39;;;;;;;4.27;1.50;;;16.10;99.90;;;;;;4934540;29;20175;-77
2021/07/22 04:33:05;;;;;;;4.07;1.23;;;16.10;99.90;;;;;;4949390;29;20478;-78
2021/07/22 04:35:31;;;;;;;1.57;1.47;;;16.20;99.90;;;;;;4945461;28;20504;-77
2021/07/22 04:37:56;;;;;;;4.50;0.97;;;16.20;99.90;;;;;;4934977;29;21025;-78
2021/07/22 04:40:23;;;;;;;10.80;1.73;;;16.20;99.90;;;;;;4945796;29;20534;-75
2021/07/22 04:42:48;;;;;;;0.80;0.60;;;16.20;99.90;;;;;;5011729;28;20265;-78
2021/07/22 04:45:14;;;;;;;1.63;0.93;;;16.30;99.90;;;;;;5032043;28;20957;-73
2021/07/22 04:47:40;;;;;;;1.20;1.10;;;16.30;99.90;;;;;;5051956;28;20167;-75
2021/07/22 04:50:06;;;;;;;2.03;1.53;;;16.40;99.90;;;;;;4958183;28;20208;-76
2021/07/22 04:52:32;;;;;;;1.83;1.10;;;16.40;99.90;;;;;;4948745;28;21041;-75
2021/07/22 04:54:57;;;;;;;1.43;1.07;;;16.40;99.90;;;;;;4953947;28;20425;-76
2021/07/22 04:57:23;;;;;;;1.00;0.90;;;16.50;99.90;;;;;;4959991;28;20204;-75
2021/07/22 04:59:49;;;;;;;5.93;3.03;;;16.50;99.90;;;;;;4951685;28;20170;-76
2021/07/22 05:02:19;;;;;;;1.50;1.23;;;16.60;99.90;;;;;;4935579;28;20195;-74
2021/07/22 05:04:45;;;;;;;2.57;1.40;;;16.60;99.90;;;;;;4941965;29;20270;-75
2021/07/22 05:07:11;;;;;;;1.17;1.07;;;16.70;99.90;;;;;;4951169;29;20489;-75
2021/07/22 05:09:36;;;;;;;2.43;2.23;;;16.70;99.90;;;;;;4940893;29;20526;-74
2021/07/22 05:12:02;;;;;;;3.10;2.80;;;16.70;99.90;;;;;;4981148;28;20989;-75
2021/07/22 05:14:27;;;;;;;2.40;2.20;;;16.80;99.90;;;;;;4951240;29;20224;-74
2021/07/22 05:16:53;;;;;;;2.17;2.07;;;16.90;99.90;;;;;;4951544;29;20636;-76
2021/07/22 05:19:18;;;;;;;1.70;1.60;;;16.90;99.90;;;;;;4951207;29;20177;-75
2021/07/22 05:21:44;;;;;;;1.70;1.60;;;17.00;99.90;;;;;;4946823;28;20171;-74
2021/07/22 05:24:09;;;;;;;3.97;1.70;;;17.00;99.90;;;;;;4931982;29;20191;-74
2021/07/22 05:26:37;;;;;;;1.43;1.33;;;17.10;99.90;;;;;;4931778;29;20178;-73
2021/07/22 05:29:03;;;;;;;1.57;1.47;;;17.20;99.90;;;;;;4953902;28;20174;-73
2021/07/22 05:31:29;;;;;;;3.43;2.00;;;17.20;99.90;;;;;;4951022;28;20945;-75
2021/07/22 05:33:54;;;;;;;1.83;1.70;;;17.30;99.90;;;;;;4949340;28;20209;-74
2021/07/22 05:36:19;;;;;;;2.80;2.47;;;17.50;99.90;;;;;;4951559;28;20185;-74
2021/07/22 05:38:45;;;;;;;4.57;2.90;;;17.60;99.90;;;;;;4952679;28;20186;-76
2021/07/22 05:41:11;;;;;;;2.10;1.93;;;17.80;99.90;;;;;;4947182;28;20182;-76
2021/07/22 05:43:37;;;;;;;4.97;2.60;;;17.90;99.90;;;;;;4946612;28;20231;-72
2021/07/22 05:46:02;;;;;;;3.07;2.80;;;18.10;99.90;;;;;;4946170;28;20614;-77
2021/07/22 05:48:28;;;;;;;1.97;1.63;;;18.30;99.90;;;;;;4949311;28;20667;-77
2021/07/22 05:50:54;;;;;;;3.20;2.47;;;18.50;99.90;;;;;;4949398;28;20194;-74
2021/07/22 05:53:19;;;;;;;5.97;3.00;;;18.70;99.90;;;;;;4949362;28;20737;-75
2021/07/22 05:55:45;;;;;;;2.57;1.43;;;18.80;99.90;;;;;;4950485;28;20166;-74
2021/07/22 05:58:11;;;;;;;2.60;2.30;;;19.00;99.90;;;;;;4951744;28;20421;-74
2021/07/22 06:00:37;;;;;;;2.07;1.97;;;19.20;99.90;;;;;;4953745;29;20167;-74
2021/07/22 06:03:04;;;;;;;3.53;3.33;;;19.40;99.90;;;;;;4952463;28;20495;-74
2021/07/22 06:05:29;;;;;;;4.50;2.60;;;19.50;99.90;;;;;;4948492;28;20177;-74
2021/07/22 06:07:56;;;;;;;1.73;1.53;;;19.60;99.90;;;;;;4947002;28;20787;-74
2021/07/22 06:10:22;;;;;;;2.50;2.03;;;19.80;99.90;;;;;;4944186;29;20213;-74
2021/07/22 06:12:48;;;;;;;3.47;2.90;;;19.90;99.90;;;;;;4939039;29;20489;-74
2021/07/22 06:15:13;;;;;;;2.30;2.10;;;20.00;99.90;;;;;;4934480;29;20569;-76
2021/07/22 06:17:40;;;;;;;2.57;2.37;;;20.20;99.90;;;;;;4934705;29;20613;-75
2021/07/22 06:20:07;;;;;;;2.50;2.40;;;20.40;99.90;;;;;;4942337;29;20205;-75
2021/07/22 06:22:35;;;;;;;2.30;2.10;;;20.60;99.90;;;;;;4935700;29;20449;-75
2021/07/22 06:25:00;;;;;;;3.47;2.57;;;20.70;99.90;;;;;;4938959;29;20459;-75
2021/07/22 06:27:26;;;;;;;2.20;1.83;;;20.80;99.90;;;;;;4953723;28;20815;-76
2021/07/22 06:29:51;;;;;;;3.03;1.43;;;20.90;99.90;;;;;;4953828;28;20178;-74
2021/07/22 06:32:17;;;;;;;8.60;3.70;;;20.90;99.90;;;;;;4951860;29;20206;-74
2021/07/22 06:34:42;;;;;;;4.93;2.10;;;21.00;99.90;;;;;;4945100;29;20261;-75
2021/07/22 06:37:09;;;;;;;3.07;2.80;;;21.10;99.90;;;;;;4938130;29;20169;-76
2021/07/22 06:39:35;;;;;;;2.17;1.73;;;21.10;99.90;;;;;;4953616;29;20202;-75
2021/07/22 06:42:03;;;;;;;3.77;2.83;;;21.20;99.90;;;;;;4941833;28;20935;-75
2021/07/22 06:44:29;;;;;;;2.53;2.33;;;21.30;99.90;;;;;;4940227;29;20452;-75
2021/07/22 06:46:55;;;;;;;5.57;4.10;;;21.40;99.90;;;;;;4935066;29;20426;-75
2021/07/22 06:49:21;;;;;;;2.13;1.47;;;21.40;99.90;;;;;;4934146;29;20213;-75
2021/07/22 06:51:51;;;;;;;7.47;2.53;;;21.50;99.90;;;;;;4933114;29;20433;-75
2021/07/22 06:54:17;;;;;;;6.43;2.30;;;21.50;99.90;;;;;;4934240;29;20200;-75
2021/07/22 06:56:42;;;;;;;4.17;2.00;;;21.50;99.90;;;;;;4932635;29;20403;-76
2021/07/22 06:59:08;;;;;;;2.63;2.33;;;21.60;99.90;;;;;;4935151;29;20911;-75
2021/07/22 07:01:34;;;;;;;1.97;1.83;;;21.70;99.90;;;;;;4936984;29;20645;-75
2021/07/22 07:03:59;;;;;;;8.83;3.53;;;21.90;99.90;;;;;;4933964;29;20240;-75
2021/07/22 07:06:25;;;;;;;5.00;3.17;;;22.20;99.90;;;;;;4948798;29;20261;-77
2021/07/22 07:08:50;;;;;;;3.33;2.83;;;22.40;99.90;;;;;;4943391;28;20228;-75
2021/07/22 07:11:16;;;;;;;2.83;2.63;;;22.60;99.90;;;;;;4938621;29;20182;-75
2021/07/22 07:13:41;;;;;;;2.20;2.00;;;22.80;99.90;;;;;;4940219;29;20209;-76
2021/07/22 07:16:07;;;;;;;2.37;2.13;;;23.00;99.90;;;;;;4952091;29;20182;-75
2021/07/22 07:18:33;;;;;;;4.13;1.50;;;23.20;99.90;;;;;;4952721;28;20253;-75
2021/07/22 07:21:05;;;;;;;6.20;2.83;;;23.40;99.90;;;;;;4951113;28;20174;-75
2021/07/22 07:23:32;;;;;;;5.40;3.20;;;23.70;99.90;;;;;;4943863;28;20191;-75
2021/07/22 07:25:58;;;;;;;2.70;1.60;;;23.90;99.90;;;;;;4933288;28;20411;-76
2021/07/22 07:28:24;;;;;;;6.37;2.30;;;24.10;99.90;;;;;;4934825;29;20419;-76
2021/07/22 07:30:49;;;;;;;3.97;2.23;;;24.40;99.90;;;;;;4952698;29;20762;-77
2021/07/22 07:33:15;;;;;;;2.43;1.53;;;24.60;99.90;;;;;;4936149;29;20576;-76
2021/07/22 07:35:41;;;;;;;2.27;1.93;;;24.80;99.90;;;;;;4951241;28;20170;-76
2021/07/22 07:38:06;;;;;;;14.80;4.87;;;25.00;99.90;;;;;;4937477;29;20213;-76
2021/07/22 07:40:32;;;;;;;3.67;2.90;;;25.20;99.90;;;;;;4933405;29;20167;-76
2021/07/22 07:42:58;;;;;;;3.23;3.03;;;25.30;99.90;;;;;;4935184;29;20273;-76
2021/07/22 07:45:25;;;;;;;5.60;3.87;;;25.50;99.90;;;;;;4951891;29;20453;-77
2021/07/22 07:47:51;;;;;;;5.00;2.27;;;25.70;99.90;;;;;;4933976;29;20175;-76
2021/07/22 07:50:17;;;;;;;5.43;2.33;;;25.90;99.90;;;;;;4941481;29;20446;-76
2021/07/22 07:52:43;;;;;;;2.83;2.63;;;26.10;99.90;;;;;;4952284;29;20475;-76
2021/07/22 07:55:09;;;;;;;3.17;2.10;;;26.20;99.90;;;;;;4943558;28;20167;-76
2021/07/22 07:57:35;;;;;;;3.13;2.83;;;26.30;99.90;;;;;;4942491;28;20944;-75
2021/07/22 08:00:01;;;;;;;2.40;1.30;;;26.50;99.90;;;;;;4943797;28;20462;-76
2021/07/22 08:02:27;;;;;;;5.20;2.50;;;26.80;99.90;;;;;;4945885;28;20187;-76
2021/07/22 08:04:55;;;;;;;2.30;2.10;;;27.00;99.90;;;;;;4942637;29;20429;-76
2021/07/22 08:07:21;;;;;;;3.60;2.13;;;27.20;99.90;;;;;;4942077;29;20170;-77
2021/07/22 08:09:47;;;;;;;2.83;2.60;;;27.40;99.90;;;;;;4940962;29;20422;-77
2021/07/22 08:12:13;;;;;;;1.70;1.60;;;27.50;99.90;;;;;;4942643;28;20452;-77
2021/07/22 08:14:39;;;;;;;2.40;2.20;;;27.70;99.90;;;;;;4941966;28;20946;-76
2021/07/22 08:17:05;;;;;;;3.33;2.17;;;27.80;99.90;;;;;;4943340;29;20414;-76
2021/07/22 08:19:32;;;;;;;2.73;2.03;;;28.00;99.90;;;;;;4942783;28;20527;-77
2021/07/22 08:21:57;;;;;;;5.83;2.67;;;28.20;99.90;;;;;;4941994;29;20407;-77
2021/07/22 08:24:23;;;;;;;3.53;2.30;;;28.40;99.90;;;;;;4940289;29;20425;-77
2021/07/22 08:26:48;;;;;;;2.90;1.53;;;28.60;99.90;;;;;;4942821;29;20174;-76
2021/07/22 08:29:14;;;;;;;2.23;1.73;;;28.70;99.90;;;;;;4942180;28;20182;-76
2021/07/22 08:31:39;;;;;;;2.13;1.60;;;29.00;99.90;;;;;;4936398;29;20167;-76
2021/07/22 08:34:05;;;;;;;2.13;2.00;;;29.20;99.90;;;;;;4933125;29;20217;-77
2021/07/22 08:36:30;;;;;;;1.40;1.30;;;29.50;99.90;;;;;;4937919;28;20175;-76
2021/07/22 08:38:56;;;;;;;2.80;1.50;;;29.80;99.90;;;;;;4934695;29;20179;-76
2021/07/22 08:41:21;;;;;;;2.10;1.83;;;29.90;99.90;;;;;;4944562;28;20173;-76
2021/07/22 08:43:50;;;;;;;3.20;2.43;;;30.00;99.90;;;;;;4951195;29;20244;-77
2021/07/22 08:46:16;;;;;;;1.23;1.13;;;30.20;99.90;;;;;;4947580;28;20651;-76
2021/07/22 08:48:43;;;;;;;2.50;1.63;;;30.50;99.90;;;;;;4940737;29;20459;-76
2021/07/22 08:51:08;;;;;;;4.37;1.70;;;30.70;99.90;;;;;;4944164;28;20889;-76
2021/07/22 08:53:35;;;;;;;1.60;1.50;;;30.90;99.90;;;;;;4965584;28;20553;-76
2021/07/22 08:56:02;;;;;;;4.27;3.00;;;31.10;99.90;;;;;;4949710;29;20233;-77
2021/07/22 08:58:28;;;;;;;3.47;2.60;;;31.20;98.80;;;;;;4944405;29;20454;-76
2021/07/22 09:00:55;;;;;;;2.90;2.30;;;31.20;98.70;;;;;;4932291;29;20415;-75
2021/07/22 09:03:21;;;;;;;2.40;2.20;;;31.20;95.20;;;;;;4932599;29;21034;-76
2021/07/22 09:05:46;;;;;;;2.73;2.00;;;31.10;93.40;;;;;;4938680;29;20465;-76
2021/07/22 09:08:13;;;;;;;1.90;1.80;;;31.20;92.60;;;;;;4943610;28;20175;-77
2021/07/22 09:10:38;;;;;;;2.60;1.20;;;31.00;91.70;;;;;;4942156;29;20688;-76
2021/07/22 09:13:04;;;;;;;1.53;1.30;;;30.70;93.80;;;;;;4938693;29;20541;-77
2021/07/22 09:15:35;;;;;;;1.67;1.27;;;30.60;94.10;;;;;;4941550;29;20654;-76
2021/07/22 09:18:24;;;;;;;2.10;1.43;;;30.50;94.20;;;;;;4942237;29;20624;-76
2021/07/22 09:20:52;;;;;;;3.77;1.53;;;30.40;95.30;;;;;;4942785;29;20406;-76
2021/07/22 09:23:20;;;;;;;2.67;2.47;;;30.30;93.80;;;;;;4941041;29;20515;-76
2021/07/22 09:25:48;;;;;;;1.97;1.30;;;30.10;93.90;;;;;;4941739;29;20415;-76
2021/07/22 09:28:21;;;;;;;5.90;2.03;;;30.00;96.90;;;;;;4941991;29;20423;-76
2021/07/22 09:30:55;;;;;;;3.87;1.87;;;30.00;95.10;;;;;;4942118;29;20446;-77
2021/07/22 09:33:41;;;;;;;1.90;1.70;;;29.90;97.70;;;;;;4944343;29;20549;-75
2021/07/22 09:36:27;;;;;;;2.07;1.10;;;29.70;94.90;;;;;;4943668;29;20426;-76
2021/07/22 09:38:52;;;;;;;1.40;1.30;;;29.70;97.50;;;;;;4945463;28;20422;-76
2021/07/22 09:41:23;;;;;;;3.23;2.50;;;29.70;97.60;;;;;;4945339;28;20461;-76
2021/07/22 09:43:49;;;;;;;1.93;1.47;;;29.60;96.90;;;;;;4945334;28;20462;-75
2021/07/22 09:46:15;;;;;;;2.90;2.60;;;29.60;96.60;;;;;;4944356;29;20415;-75
2021/07/22 09:49:09;;;;;;;1.93;1.23;;;29.40;93.00;;;;;;4940283;29;20174;-75
2021/07/22 09:51:35;;;;;;;1.87;1.47;;;29.30;94.80;;;;;;4945445;28;20472;-76
2021/07/22 09:54:08;;;;;;;2.90;2.00;;;29.30;96.60;;;;;;4946697;29;20519;-77
2021/07/22 09:56:38;;;;;;;2.30;1.10;;;29.10;93.30;;;;;;4945659;28;20402;-76
2021/07/22 09:59:05;;;;;;;2.00;1.60;;;29.10;94.90;;;;;;4943127;29;20418;-76
2021/07/22 10:01:35;;;;;;;2.13;1.70;;;29.10;93.90;;;;;;4944755;29;20414;-76
2021/07/22 10:04:03;;;;;;;1.73;1.43;;;29.20;94.20;;;;;;4944939;29;20902;-75
2021/07/22 10:06:30;;;;;;;1.40;1.30;;;29.30;94.30;;;;;;4945161;29;20430;-76
2021/07/22 10:08:55;;;;;;;1.60;1.00;;;29.50;90.70;;;;;;4944064;29;20448;-76
2021/07/22 10:11:21;;;;;;;2.73;2.30;;;29.70;87.50;;;;;;4944976;28;20799;-75
2021/07/22 10:13:48;;;;;;;2.93;2.40;;;29.80;89.70;;;;;;4942816;28;20207;-75
2021/07/22 10:16:22;;;;;;;2.13;1.63;;;30.00;91.00;;;;;;4942950;29;20185;-76
2021/07/22 10:18:49;;;;;;;2.13;1.50;;;30.20;90.60;;;;;;4945615;28;20923;-75
2021/07/22 10:21:15;;;;;;;1.60;1.50;;;30.40;86.60;;;;;;4943776;28;20813;-75
2021/07/22 10:23:42;;;;;;;2.70;1.47;;;30.60;84.00;;;;;;4944778;28;20435;-75
2021/07/22 10:26:08;;;;;;;2.97;2.57;;;30.70;88.30;;;;;;4942171;29;20970;-76
2021/07/22 10:28:34;;;;;;;3.40;2.20;;;30.90;80.40;;;;;;4944174;29;20426;-76
2021/07/22 10:31:05;;;;;;;2.23;2.03;;;31.00;78.90;;;;;;4943786;28;20841;-77
2021/07/22 10:33:34;;;;;;;3.17;2.93;;;31.10;79.40;;;;;;4945212;28;20198;-76
2021/07/22 10:35:59;;;;;;;1.97;1.87;;;31.20;79.50;;;;;;4942835;28;20930;-75
2021/07/22 10:38:44;;;;;;;2.40;2.00;;;31.20;79.70;;;;;;4943846;29;20422;-76
2021/07/22 10:41:29;;;;;;;1.63;1.53;;;31.40;77.50;;;;;;4943489;28;20500;-76
2021/07/22 10:43:55;;;;;;;2.73;1.83;;;31.50;78.40;;;;;;4945010;28;20866;-77
2021/07/22 10:46:21;;;;;;;1.77;1.60;;;31.70;74.70;;;;;;4941654;28;20458;-77
2021/07/22 10:48:47;;;;;;;1.73;1.60;;;31.90;79.30;;;;;;4942578;29;20690;-78
2021/07/22 10:51:20;;;;;;;2.03;1.73;;;32.10;81.20;;;;;;4943405;29;20282;-77
2021/07/22 10:53:50;;;;;;;4.10;2.37;;;32.10;79.90;;;;;;4942796;28;20470;-77
2021/07/22 10:56:35;;;;;;;3.60;2.10;;;32.30;70.50;;;;;;4943953;29;20423;-78
2021/07/22 10:59:00;;;;;;;5.03;2.03;;;32.20;71.60;;;;;;4944432;28;20968;-77
2021/07/22 11:01:44;;;;;;;3.10;2.30;;;32.00;75.00;;;;;;4946246;29;20421;-77
2021/07/22 11:04:16;;;;;;;3.57;1.80;;;31.80;75.80;;;;;;4949178;28;20194;-77
2021/07/22 11:07:00;;;;;;;1.70;1.57;;;31.60;78.90;;;;;;4948373;28;20781;-77
2021/07/22 11:09:41;;;;;;;1.93;1.60;;;31.30;82.30;;;;;;4944773;28;20425;-77
2021/07/22 11:12:06;;;;;;;3.30;3.00;;;31.00;87.00;;;;;;4941958;28;20406;-77
2021/07/22 11:14:33;;;;;;;2.33;2.07;;;30.60;86.10;;;;;;4943608;29;20411;-77
2021/07/22 11:17:00;;;;;;;2.20;1.70;;;30.50;88.90;;;;;;4945209;28;20170;-77
2021/07/22 11:19:27;;;;;;;2.73;2.00;;;30.50;89.60;;;;;;4945185;28;20502;-78
2021/07/22 11:21:53;;;;;;;3.07;2.57;;;30.40;86.30;;;;;;4943201;29;20505;-77
2021/07/22 11:24:30;;;;;;;8.33;3.30;;;30.60;86.40;;;;;;4943738;29;20445;-77
2021/07/22 11:26:57;;;;;;;1.57;1.47;;;30.50;87.70;;;;;;4943167;29;20521;-77
2021/07/22 11:29:24;;;;;;;2.90;1.93;;;30.60;91.10;;;;;;4944669;28;20925;-78
2021/07/22 11:31:51;;;;;;;3.10;2.00;;;30.70;92.70;;;;;;4943342;29;20423;-77
2021/07/22 11:34:34;;;;;;;4.20;2.10;;;31.00;91.60;;;;;;4943221;29;20477;-77
2021/07/22 11:37:01;;;;;;;2.87;1.90;;;31.10;89.00;;;;;;4946062;29;20888;-78
2021/07/22 11:39:39;;;;;;;2.33;2.13;;;31.10;89.50;;;;;;4943348;28;20919;-77
2021/07/22 11:42:07;;;;;;;4.23;1.60;;;31.10;90.50;;;;;;4952166;28;20442;-77
2021/07/22 11:44:33;;;;;;;3.00;2.73;;;31.00;87.70;;;;;;4951425;28;20766;-77
2021/07/22 11:46:58;;;;;;;2.43;2.07;;;30.80;90.40;;;;;;4943105;28;20584;-77
2021/07/22 11:49:33;;;;;;;1.97;1.23;;;30.70;90.00;;;;;;4952575;29;20479;-77
2021/07/22 11:51:59;;;;;;;3.43;2.77;;;30.60;90.50;;;;;;4952786;28;20666;-77
2021/07/22 11:54:25;;;;;;;2.57;2.00;;;30.50;90.10;;;;;;4951792;28;20540;-77
2021/07/22 11:56:56;;;;;;;2.53;2.33;;;30.30;92.00;;;;;;4951963;28;20501;-78
2021/07/22 11:59:26;;;;;;;3.97;2.03;;;30.10;92.50;;;;;;4953331;28;20181;-77
2021/07/22 12:01:53;;;;;;;4.10;2.20;;;29.90;92.70;;;;;;4961267;28;20414;-77
2021/07/22 12:04:34;;;;;;;1.63;1.53;;;29.80;94.40;;;;;;4962466;28;20448;-77
2021/07/22 12:07:02;;;;;;;2.13;1.80;;;29.60;95.00;;;;;;4949978;29;20449;-77
2021/07/22 12:09:28;;;;;;;3.50;2.07;;;29.60;94.40;;;;;;4942038;29;20426;-77
2021/07/22 12:11:54;;;;;;;5.53;2.00;;;29.60;93.00;;;;;;4933361;29;20920;-77
2021/07/22 12:14:28;;;;;;;8.20;3.13;;;29.80;94.90;;;;;;4934605;29;20195;-78
2021/07/22 12:16:55;;;;;;;3.00;2.70;;;30.10;91.90;;;;;;4933864;29;20422;-77
2021/07/22 12:19:23;;;;;;;2.10;1.57;;;30.60;90.40;;;;;;4933154;29;20414;-78
2021/07/22 12:22:20;;;;;;;2.40;2.20;;;31.10;93.60;;;;;;4933204;29;20410;-78
2021/07/22 12:24:47;;;;;;;5.83;3.60;;;31.70;91.60;;;;;;4940263;29;20419;-78
2021/07/22 12:27:26;;;;;;;3.40;2.17;;;32.10;87.20;;;;;;4942141;29;20426;-76
2021/07/22 12:29:51;;;;;;;2.40;1.83;;;32.40;79.00;;;;;;4954035;28;20456;-77
2021/07/22 12:32:17;;;;;;;2.13;1.93;;;32.80;77.50;;;;;;4955051;29;20942;-77
2021/07/22 12:34:43;;;;;;;2.27;2.07;;;33.20;71.30;;;;;;4948452;29;20167;-78
2021/07/22 12:37:08;;;;;;;2.43;2.23;;;33.30;70.30;;;;;;4945522;29;20415;-78
2021/07/22 12:39:34;;;;;;;3.40;2.53;;;33.30;69.20;;;;;;4941716;29;20227;-78
2021/07/22 12:42:11;;;;;;;3.70;1.90;;;33.10;72.30;;;;;;4944309;29;20185;-78
2021/07/22 12:44:44;;;;;;;2.10;1.80;;;32.90;74.60;;;;;;4954690;28;20194;-77
2021/07/22 12:47:35;;;;;;;3.33;2.97;;;32.90;76.40;;;;;;4950983;29;20422;-77
2021/07/22 12:50:02;;;;;;;1.97;1.83;;;32.60;71.60;;;;;;4953606;29;20434;-78